createdAt,value
2023-03-22T00:02:26.495Z,13.00
2023-03-22T00:04:55.109Z,12.30
2023-03-22T00:07:23.639Z,12.80
2023-03-22T00:09:52.136Z,12.00
2023-03-22T00:12:20.588Z,12.40
2023-03-22T00:14:49.716Z,13.50
2023-03-22T00:17:18.588Z,12.50
2023-03-22T00:19:47.586Z,12.90
2023-03-22T00:22:16.291Z,13.70
2023-03-22T00:24:44.917Z,10.90
2023-03-22T00:27:13.304Z,10.40
2023-03-22T00:29:43.237Z,11.30
2023-03-22T00:32:11.862Z,11.20
2023-03-22T00:34:40.514Z,12.10
2023-03-22T00:37:09.142Z,11.10
2023-03-22T00:39:37.844Z,12.90
2023-03-22T00:42:07.390Z,12.90
2023-03-22T00:44:36.271Z,12.00
2023-03-22T00:47:05.218Z,11.60
2023-03-22T00:49:35.341Z,12.00
2023-03-22T00:52:04.112Z,12.10
2023-03-22T00:54:32.553Z,13.80
2023-03-22T00:57:01.230Z,13.50
2023-03-22T00:59:29.781Z,13.30
2023-03-22T01:01:59.157Z,14.00
2023-03-22T01:04:28.091Z,11.80
2023-03-22T01:07:03.857Z,12.40
2023-03-22T01:09:33.941Z,12.90
2023-03-22T01:12:02.555Z,13.50
2023-03-22T01:14:31.986Z,15.50
2023-03-22T01:17:00.564Z,14.60
2023-03-22T01:19:29.101Z,13.70
2023-03-22T01:21:57.929Z,14.00
2023-03-22T01:24:26.576Z,14.50
2023-03-22T01:26:55.179Z,15.50
2023-03-22T01:29:25.173Z,14.70
2023-03-22T01:31:53.581Z,14.00
2023-03-22T01:34:22.520Z,12.30
2023-03-22T01:36:51.485Z,11.80
2023-03-22T01:39:20.268Z,11.70
2023-03-22T01:41:49.414Z,13.80
2023-03-22T01:44:23.432Z,14.70
2023-03-22T01:46:53.189Z,13.70
2023-03-22T01:49:25.115Z,12.70
2023-03-22T01:51:59.230Z,14.30
2023-03-22T01:54:48.189Z,13.30
2023-03-22T01:57:25.648Z,13.60
2023-03-22T01:59:54.241Z,13.80
2023-03-22T02:03:07.322Z,15.00
2023-03-22T02:05:40.573Z,17.40
2023-03-22T02:08:09.217Z,24.20
2023-03-22T02:10:52.287Z,24.80
2023-03-22T02:13:39.061Z,21.80
2023-03-22T02:17:24.654Z,18.70
2023-03-22T02:20:14.255Z,12.00
2023-03-22T02:22:53.251Z,12.00
2023-03-22T02:25:46.412Z,12.90
2023-03-22T02:28:18.992Z,13.20
2023-03-22T02:31:32.145Z,15.10
2023-03-22T02:34:31.457Z,12.70
2023-03-22T02:37:43.509Z,11.50
2023-03-22T02:40:58.888Z,12.60
2023-03-22T02:43:59.552Z,14.60
2023-03-22T02:46:39.076Z,18.00
2023-03-22T02:49:46.183Z,16.30
2023-03-22T02:52:39.448Z,16.00
2023-03-22T02:55:39.838Z,14.70
2023-03-22T02:58:19.728Z,15.10
2023-03-22T03:00:53.865Z,12.80
2023-03-22T03:06:00.625Z,12.00
2023-03-22T03:08:31.104Z,13.90
2023-03-22T03:11:01.502Z,16.00
2023-03-22T03:13:31.101Z,13.60
2023-03-22T03:16:01.533Z,15.90
2023-03-22T03:18:59.233Z,18.20
2023-03-22T03:21:56.963Z,16.70
2023-03-22T03:24:39.466Z,16.80
2023-03-22T03:27:28.291Z,17.40
2023-03-22T03:30:08.660Z,16.30
2023-03-22T03:32:50.013Z,14.20
2023-03-22T03:35:33.743Z,15.30
2023-03-22T03:38:36.228Z,15.60
2023-03-22T03:41:10.259Z,17.60
2023-03-22T03:43:40.364Z,14.60
2023-03-22T03:46:09.426Z,15.50
2023-03-22T03:48:42.265Z,17.50
2023-03-22T03:51:12.455Z,19.60
2023-03-22T03:53:41.428Z,17.40
2023-03-22T03:56:10.972Z,17.60
2023-03-22T03:58:43.380Z,18.70
2023-03-22T04:01:12.122Z,20.20
2023-03-22T04:03:55.522Z,18.90
2023-03-22T04:06:48.956Z,19.40
2023-03-22T04:09:28.488Z,17.20
2023-03-22T04:12:00.147Z,19.60
2023-03-22T04:14:28.904Z,17.10
2023-03-22T04:16:58.512Z,17.30
2023-03-22T04:19:27.438Z,18.80
2023-03-22T04:21:55.894Z,21.00
2023-03-22T04:24:24.625Z,20.20
2023-03-22T04:26:53.379Z,16.80
2023-03-22T04:29:25.693Z,15.60
2023-03-22T04:32:00.872Z,16.10
2023-03-22T04:34:38.105Z,17.10
2023-03-22T04:37:11.895Z,17.50
2023-03-22T04:39:56.999Z,18.40
2023-03-22T04:42:38.579Z,18.20
2023-03-22T04:45:21.045Z,19.80
2023-03-22T04:47:53.466Z,18.30
2023-03-22T04:50:22.201Z,19.50
2023-03-22T04:52:53.547Z,16.30
2023-03-22T04:55:22.245Z,18.30
2023-03-22T04:57:51.322Z,17.70
2023-03-22T05:00:21.850Z,20.70
2023-03-22T05:02:50.850Z,18.70
2023-03-22T05:05:25.281Z,17.50
2023-03-22T05:07:53.985Z,16.80
2023-03-22T05:10:22.962Z,19.00
2023-03-22T05:12:51.477Z,19.80
2023-03-22T05:15:24.416Z,22.50
2023-03-22T05:17:53.575Z,20.40
2023-03-22T05:20:22.304Z,19.50
2023-03-22T05:23:02.667Z,17.90
2023-03-22T05:25:31.726Z,17.80
2023-03-22T05:28:01.947Z,17.50
2023-03-22T05:31:08.633Z,17.60
2023-03-22T05:33:46.827Z,17.60
2023-03-22T05:36:20.615Z,19.50
2023-03-22T05:39:17.482Z,18.50
2023-03-22T05:41:46.701Z,20.00
2023-03-22T05:44:15.578Z,14.90
2023-03-22T05:46:52.498Z,13.60
2023-03-22T05:49:32.926Z,15.40
2023-03-22T05:52:04.524Z,18.40
2023-03-22T05:54:45.046Z,19.20
2023-03-22T05:57:13.493Z,19.90
2023-03-22T05:59:42.077Z,19.10
2023-03-22T06:02:11.796Z,14.20
2023-03-22T06:04:41.811Z,17.40
2023-03-22T06:07:14.796Z,15.20
2023-03-22T06:09:53.660Z,15.00
2023-03-22T06:12:27.737Z,17.40
2023-03-22T06:15:02.254Z,19.60
2023-03-22T06:17:49.074Z,19.90
2023-03-22T06:20:21.308Z,20.90
2023-03-22T06:22:54.325Z,17.90
2023-03-22T06:25:22.853Z,16.10
2023-03-22T06:27:51.550Z,16.60
2023-03-22T06:30:20.238Z,16.90
2023-03-22T06:33:04.584Z,15.20
2023-03-22T06:35:35.603Z,16.50
2023-03-22T06:38:04.533Z,16.80
2023-03-22T06:40:35.848Z,17.00
2023-03-22T06:43:06.994Z,16.70
2023-03-22T06:45:36.178Z,16.30
2023-03-22T06:48:05.574Z,19.60
2023-03-22T06:51:02.130Z,19.50
2023-03-22T06:53:37.934Z,22.80
2023-03-22T06:56:07.325Z,21.70
2023-03-22T06:58:45.713Z,19.30
2023-03-22T07:01:14.284Z,17.90
2023-03-22T07:03:42.897Z,20.50
2023-03-22T07:06:15.468Z,18.50
2023-03-22T07:08:46.766Z,17.20
2023-03-22T07:11:17.668Z,19.30
2023-03-22T07:13:49.131Z,18.90
2023-03-22T07:16:20.499Z,19.30
2023-03-22T07:18:53.086Z,20.50
2023-03-22T07:21:21.799Z,16.20
2023-03-22T07:23:53.890Z,19.80
2023-03-22T07:26:22.887Z,21.10
2023-03-22T07:28:51.567Z,20.10
2023-03-22T07:31:20.562Z,20.10
2023-03-22T07:34:30.086Z,20.00
2023-03-22T07:37:08.323Z,19.50
2023-03-22T07:39:37.660Z,18.60
2023-03-22T07:42:08.175Z,23.30
2023-03-22T07:44:55.072Z,21.60
2023-03-22T07:47:40.025Z,21.90
2023-03-22T07:50:20.983Z,22.60
2023-03-22T07:52:54.518Z,21.80
2023-03-22T07:55:23.284Z,21.80
2023-03-22T07:57:51.951Z,17.90
2023-03-22T08:00:21.072Z,21.00
2023-03-22T08:03:30.550Z,20.10
2023-03-22T08:06:07.810Z,22.00
2023-03-22T08:08:37.598Z,22.90
2023-03-22T08:11:08.288Z,22.70
2023-03-22T08:13:38.112Z,23.10
2023-03-22T08:16:07.149Z,24.00
2023-03-22T08:18:36.325Z,21.40
2023-03-22T08:21:05.265Z,22.90
2023-03-22T08:23:41.729Z,22.20
2023-03-22T08:26:29.783Z,23.00
2023-03-22T08:29:02.024Z,23.70
2023-03-22T08:31:32.068Z,21.20
2023-03-22T08:34:01.064Z,21.10
2023-03-22T08:36:29.791Z,22.90
2023-03-22T08:39:01.689Z,24.70
2023-03-22T08:42:17.208Z,21.70
2023-03-22T08:44:46.253Z,22.20
2023-03-22T08:47:15.006Z,22.90
2023-03-22T08:49:45.299Z,24.20
2023-03-22T08:52:22.815Z,23.50
2023-03-22T08:54:57.379Z,21.60
2023-03-22T08:57:50.425Z,24.50
2023-03-22T09:00:45.987Z,26.20
2023-03-22T09:04:10.717Z,24.60
2023-03-22T09:06:43.022Z,24.40
2023-03-22T09:09:12.946Z,24.20
2023-03-22T09:11:43.360Z,24.80
2023-03-22T09:14:11.978Z,23.80
2023-03-22T09:16:40.860Z,24.90
2023-03-22T09:19:10.041Z,22.00
2023-03-22T09:21:38.720Z,21.10
2023-03-22T09:24:16.178Z,22.00
2023-03-22T09:26:47.239Z,24.40
2023-03-22T09:29:17.285Z,20.30
2023-03-22T09:31:49.189Z,21.70
2023-03-22T09:34:20.044Z,23.00
2023-03-22T09:36:48.748Z,22.00
2023-03-22T09:39:19.933Z,21.60
2023-03-22T09:42:08.869Z,21.70
2023-03-22T09:44:42.926Z,22.10
2023-03-22T09:47:35.872Z,21.20
2023-03-22T09:50:24.265Z,21.50
2023-03-22T09:52:54.096Z,20.20
2023-03-22T09:56:20.222Z,22.70
2023-03-22T09:59:03.528Z,14.90
2023-03-22T10:01:50.151Z,19.80
2023-03-22T10:04:27.752Z,23.10
2023-03-22T10:07:28.064Z,24.00
2023-03-22T10:10:18.189Z,21.60
2023-03-22T10:13:13.897Z,23.80
2023-03-22T10:15:51.771Z,20.00
2023-03-22T10:18:32.624Z,21.40
2023-03-22T10:21:02.517Z,22.80
2023-03-22T10:23:44.814Z,21.70
2023-03-22T10:26:37.138Z,23.60
2023-03-22T10:29:32.254Z,22.80
2023-03-22T10:32:32.517Z,20.60
2023-03-22T10:35:01.040Z,18.80
2023-03-22T10:37:34.726Z,18.80
2023-03-22T10:40:06.935Z,18.10
2023-03-22T10:42:39.613Z,16.60
2023-03-22T10:45:14.764Z,21.90
2023-03-22T10:47:52.092Z,19.60
2023-03-22T10:50:37.212Z,17.40
2023-03-22T10:53:32.550Z,19.60
2023-03-22T10:56:01.105Z,21.90
2023-03-22T10:58:32.819Z,20.80
2023-03-22T11:01:14.995Z,20.90
2023-03-22T11:03:49.202Z,20.30
2023-03-22T11:06:39.491Z,19.80
2023-03-22T11:09:18.718Z,20.00
2023-03-22T11:11:54.443Z,19.50
2023-03-22T11:14:28.894Z,17.40
2023-03-22T11:17:02.032Z,20.30
2023-03-22T11:19:58.393Z,20.30
2023-03-22T11:22:49.553Z,19.70
2023-03-22T11:25:32.682Z,19.90
2023-03-22T11:28:04.211Z,20.60
2023-03-22T11:30:34.622Z,17.00
2023-03-22T11:33:09.099Z,17.30
2023-03-22T11:35:39.558Z,16.70
2023-03-22T11:38:29.911Z,17.50
2023-03-22T11:41:28.999Z,18.80
2023-03-22T11:44:02.728Z,19.00
2023-03-22T11:46:32.703Z,19.90
2023-03-22T11:49:06.114Z,20.00
2023-03-22T11:51:39.488Z,18.80
2023-03-22T11:54:23.373Z,18.20
2023-03-22T11:56:54.741Z,19.00
2023-03-22T11:59:30.846Z,18.10
2023-03-22T12:02:23.866Z,17.30
2023-03-22T12:05:02.507Z,20.00
2023-03-22T12:07:34.561Z,18.10
2023-03-22T12:10:23.114Z,15.70
2023-03-22T12:12:57.749Z,16.20
2023-03-22T12:15:38.707Z,16.00
2023-03-22T12:18:15.111Z,15.20
2023-03-22T12:21:01.081Z,14.50
2023-03-22T12:23:35.505Z,14.60
2023-03-22T12:26:26.619Z,14.80
2023-03-22T12:29:21.902Z,19.20
2023-03-22T12:32:12.593Z,19.30
2023-03-22T12:34:50.884Z,16.20
2023-03-22T12:37:27.230Z,12.10
2023-03-22T12:40:23.485Z,17.70
2023-03-22T12:43:30.917Z,19.30
2023-03-22T12:46:04.084Z,19.40
2023-03-22T12:48:58.043Z,21.10
2023-03-22T12:51:26.574Z,17.50
2023-03-22T12:53:58.837Z,15.30
2023-03-22T12:56:45.217Z,14.90
2023-03-22T12:59:29.480Z,17.40
2023-03-22T13:02:18.897Z,17.50
2023-03-22T13:04:53.995Z,12.60
2023-03-22T13:07:31.061Z,18.50
2023-03-22T13:10:01.202Z,17.90
2023-03-22T13:12:33.342Z,17.50
2023-03-22T13:15:40.335Z,15.00
2023-03-22T13:18:51.156Z,14.80
2023-03-22T13:21:26.946Z,16.60
2023-03-22T13:24:10.635Z,18.00
2023-03-22T13:26:39.056Z,16.10
2023-03-22T13:29:20.210Z,13.40
2023-03-22T13:31:51.625Z,13.70
2023-03-22T13:34:31.693Z,14.40
2023-03-22T13:37:01.810Z,14.40
2023-03-22T13:39:39.400Z,17.20
2023-03-22T13:42:20.707Z,15.70
2023-03-22T13:44:58.710Z,17.10
2023-03-22T13:47:44.655Z,13.90
2023-03-22T13:50:29.402Z,16.80
2023-03-22T13:53:05.213Z,12.00
2023-03-22T13:55:52.029Z,15.60
2023-03-22T13:58:50.092Z,17.10
2023-03-22T14:01:57.544Z,16.30
2023-03-22T14:04:39.568Z,14.40
2023-03-22T14:07:40.668Z,15.60
2023-03-22T14:10:27.014Z,13.20
2023-03-22T14:13:10.865Z,17.50
2023-03-22T14:15:47.100Z,17.00
2023-03-22T14:18:31.891Z,14.00
2023-03-22T14:21:12.919Z,13.60
